createdAt,value
2023-03-12T00:04:29.894Z,3.80
2023-03-12T00:09:21.568Z,4.67
2023-03-12T00:14:13.432Z,3.90
2023-03-12T00:19:05.184Z,4.33
2023-03-12T00:23:56.980Z,4.27
2023-03-12T00:28:50.483Z,4.03
2023-03-12T00:33:42.294Z,4.47
2023-03-12T00:38:34.125Z,3.90
2023-03-12T00:43:26.428Z,4.53
2023-03-12T00:48:18.307Z,4.33
2023-03-12T00:53:10.137Z,3.93
2023-03-12T00:58:01.982Z,4.43
2023-03-12T01:02:55.453Z,4.43
2023-03-12T01:07:47.422Z,4.30
2023-03-12T01:12:39.120Z,4.50
2023-03-12T01:17:30.953Z,4.00
2023-03-12T01:22:23.542Z,3.77
2023-03-12T01:27:15.171Z,3.90
2023-03-12T01:32:07.127Z,3.70
2023-03-12T01:36:59.519Z,4.50
2023-03-12T01:41:51.504Z,3.90
2023-03-12T01:46:46.044Z,4.13
2023-03-12T01:51:55.662Z,4.17
2023-03-12T01:56:50.640Z,3.97
2023-03-12T02:01:43.491Z,3.93
2023-03-12T02:06:43.797Z,3.40
2023-03-12T02:11:35.944Z,3.70
2023-03-12T02:16:27.768Z,3.20
2023-03-12T02:21:24.057Z,3.27
2023-03-12T02:26:19.427Z,3.27
2023-03-12T02:31:16.351Z,3.83
2023-03-12T02:36:09.336Z,3.87
2023-03-12T02:41:12.256Z,3.20
2023-03-12T02:46:04.883Z,3.30
2023-03-12T02:50:56.634Z,3.37
2023-03-12T02:55:48.555Z,2.93
2023-03-12T03:00:40.370Z,2.93
2023-03-12T03:05:32.829Z,2.87
2023-03-12T03:10:24.855Z,2.57
2023-03-12T03:15:16.769Z,2.70
2023-03-12T03:20:11.366Z,2.93
2023-03-12T03:25:04.354Z,3.00
2023-03-12T03:29:56.262Z,2.63
2023-03-12T03:34:48.373Z,3.10
2023-03-12T03:39:41.540Z,2.53
2023-03-12T03:44:33.364Z,2.70
2023-03-12T03:49:26.172Z,2.60
2023-03-12T03:54:18.309Z,3.27
2023-03-12T03:59:11.473Z,2.70
2023-03-12T04:04:05.461Z,2.63
2023-03-12T04:08:59.358Z,2.63
2023-03-12T04:13:52.675Z,2.70
2023-03-12T04:18:48.293Z,2.43
2023-03-12T04:23:41.996Z,2.63
2023-03-12T04:28:36.061Z,2.60
2023-03-12T04:33:29.813Z,2.00
2023-03-12T04:38:24.196Z,2.27
2023-03-12T04:43:20.793Z,2.30
2023-03-12T04:48:13.331Z,2.00
2023-03-12T04:53:05.101Z,2.27
2023-03-12T04:57:56.740Z,2.53
2023-03-12T05:02:49.250Z,2.30
2023-03-12T05:07:41.850Z,2.10
2023-03-12T05:12:33.632Z,2.30
2023-03-12T05:17:25.355Z,2.50
2023-03-12T05:22:17.619Z,2.17
2023-03-12T05:27:09.940Z,2.60
2023-03-12T05:32:02.818Z,2.30
2023-03-12T05:36:54.664Z,2.03
2023-03-12T05:41:49.202Z,2.00
2023-03-12T05:46:43.983Z,2.50
2023-03-12T05:51:36.641Z,2.57
2023-03-12T05:56:28.623Z,2.20
2023-03-12T06:01:25.837Z,2.20
2023-03-12T06:06:20.218Z,2.07
2023-03-12T06:11:12.704Z,2.30
2023-03-12T06:16:05.669Z,2.10
2023-03-12T06:21:15.562Z,2.10
2023-03-12T06:26:07.678Z,1.90
2023-03-12T06:31:00.135Z,2.17
2023-03-12T06:35:56.624Z,2.43
2023-03-12T06:41:16.162Z,2.50
2023-03-12T06:46:11.350Z,2.27
2023-03-12T06:51:04.532Z,1.93
2023-03-12T06:55:56.367Z,2.07
2023-03-12T07:00:48.017Z,2.43
2023-03-12T07:05:40.027Z,2.27
2023-03-12T07:10:31.958Z,2.60
2023-03-12T07:15:24.316Z,2.20
2023-03-12T07:20:16.296Z,2.40
2023-03-12T07:25:09.852Z,2.23
2023-03-12T07:30:02.041Z,1.97
2023-03-12T07:34:53.704Z,2.00
2023-03-12T07:39:45.439Z,2.40
2023-03-12T07:44:37.183Z,2.43
2023-03-12T07:49:28.958Z,2.73
2023-03-12T07:54:20.977Z,1.97
2023-03-12T07:59:13.168Z,2.20
2023-03-12T08:04:05.055Z,2.77
2023-03-12T08:08:56.899Z,2.20
2023-03-12T08:13:48.699Z,2.90
2023-03-12T08:18:43.048Z,2.50
2023-03-12T08:23:35.673Z,2.40
2023-03-12T08:28:28.142Z,2.57
2023-03-12T08:33:20.669Z,2.60
2023-03-12T08:38:12.560Z,2.63
2023-03-12T08:43:04.650Z,2.50
2023-03-12T08:47:56.413Z,2.97
2023-03-12T08:52:48.684Z,3.00
2023-03-12T08:57:40.953Z,3.03
2023-03-12T09:02:32.616Z,3.07
2023-03-12T09:07:24.381Z,3.00
2023-03-12T09:12:16.230Z,3.20
2023-03-12T09:17:07.886Z,3.20
2023-03-12T09:21:59.515Z,3.77
2023-03-12T09:26:51.213Z,3.40
2023-03-12T09:31:42.894Z,3.30
2023-03-12T09:36:34.583Z,4.63
2023-03-12T09:41:30.558Z,3.57
2023-03-12T09:46:33.831Z,4.20
2023-03-12T09:51:46.519Z,4.23
2023-03-12T09:56:38.499Z,4.50
2023-03-12T10:01:47.972Z,3.97
2023-03-12T10:07:01.061Z,4.30
2023-03-12T10:12:17.760Z,4.63
2023-03-12T10:17:15.556Z,4.40
2023-03-12T10:22:26.435Z,4.20
2023-03-12T10:27:18.949Z,4.20
2023-03-12T10:32:10.588Z,4.63
2023-03-12T10:37:21.525Z,5.17
2023-03-12T10:42:21.612Z,4.73
2023-03-12T10:47:38.027Z,5.77
2023-03-12T10:52:29.762Z,5.20
2023-03-12T10:57:22.051Z,5.10
2023-03-12T11:02:30.602Z,4.63
2023-03-12T11:07:29.550Z,4.50
2023-03-12T11:12:27.681Z,4.40
2023-03-12T11:17:25.408Z,5.10
2023-03-12T11:22:32.111Z,4.13
2023-03-12T11:27:59.192Z,4.27
2023-03-12T11:32:51.652Z,4.60
2023-03-12T11:38:16.243Z,4.87
2023-03-12T11:43:39.972Z,4.53
2023-03-12T11:48:42.887Z,3.60
2023-03-12T11:54:02.223Z,4.20
2023-03-12T11:59:39.116Z,4.00
2023-03-12T12:04:33.737Z,3.90
2023-03-12T12:09:44.275Z,3.83
2023-03-12T12:14:39.032Z,3.40
2023-03-12T12:19:36.818Z,4.67
2023-03-12T12:24:55.920Z,4.00
2023-03-12T12:30:02.955Z,3.73
2023-03-12T12:34:57.599Z,2.97
2023-03-12T12:40:01.404Z,3.47
2023-03-12T12:44:57.841Z,3.43
2023-03-12T12:49:55.350Z,3.60
2023-03-12T12:54:59.328Z,3.17
2023-03-12T13:00:28.347Z,2.50
2023-03-12T13:05:38.277Z,2.93
2023-03-12T13:10:33.028Z,3.00
2023-03-12T13:15:30.971Z,3.27
2023-03-12T13:20:28.956Z,2.77
2023-03-12T13:25:45.844Z,2.80
2023-03-12T13:30:37.488Z,2.90
2023-03-12T13:35:32.772Z,2.67
2023-03-12T13:40:30.616Z,3.10
2023-03-12T13:45:25.503Z,3.00
2023-03-12T13:50:17.432Z,3.57
2023-03-12T13:55:26.705Z,3.33
2023-03-12T14:00:40.300Z,3.90
2023-03-12T14:05:43.371Z,5.30
2023-03-12T14:11:00.123Z,3.70
2023-03-12T14:15:58.633Z,4.33
2023-03-12T14:21:06.333Z,3.90
2023-03-12T14:26:03.908Z,3.67
2023-03-12T14:31:05.757Z,3.43
2023-03-12T14:36:10.235Z,3.50
2023-03-12T14:41:14.620Z,3.73
2023-03-12T14:46:18.374Z,3.67
2023-03-12T14:51:28.656Z,4.03
2023-03-12T14:56:30.820Z,4.07
2023-03-12T15:01:34.476Z,4.50
2023-03-12T15:06:30.633Z,3.40
2023-03-12T15:11:25.131Z,3.80
2023-03-12T15:16:17.360Z,5.43
2023-03-12T15:21:09.268Z,3.80
2023-03-12T15:26:27.021Z,3.83
2023-03-12T15:31:18.947Z,3.40
2023-03-12T15:36:19.802Z,4.10
2023-03-12T15:41:20.144Z,4.07
2023-03-12T15:46:12.590Z,4.80
2023-03-12T15:51:14.123Z,4.53
2023-03-12T15:56:10.360Z,4.43
2023-03-12T16:01:18.342Z,4.40
2023-03-12T16:06:13.119Z,5.77
2023-03-12T16:11:10.009Z,4.67
2023-03-12T16:16:02.023Z,5.40
2023-03-12T16:20:54.156Z,4.23
2023-03-12T16:25:48.923Z,4.43
2023-03-12T16:30:40.913Z,4.30
2023-03-12T16:35:33.341Z,3.87
2023-03-12T16:40:33.348Z,4.43
2023-03-12T16:45:27.792Z,4.10
2023-03-12T16:50:22.421Z,4.20
2023-03-12T16:55:15.468Z,3.63
2023-03-12T17:00:11.929Z,4.10
2023-03-12T17:05:03.742Z,3.70
2023-03-12T17:09:55.436Z,4.30
2023-03-12T17:14:48.006Z,4.20
2023-03-12T17:19:39.743Z,4.33
2023-03-12T17:24:31.827Z,4.07
2023-03-12T17:29:23.892Z,4.37
2023-03-12T17:34:15.822Z,3.97
2023-03-12T17:39:07.524Z,4.20
2023-03-12T17:44:01.730Z,4.00
2023-03-12T17:48:53.754Z,3.73
2023-03-12T17:53:46.637Z,4.17
2023-03-12T17:58:38.906Z,3.93
2023-03-12T18:03:30.617Z,4.10
2023-03-12T18:08:22.316Z,4.47
2023-03-12T18:13:14.384Z,4.43
2023-03-12T18:18:06.078Z,4.20
2023-03-12T18:22:57.852Z,4.43
2023-03-12T18:27:49.473Z,4.70
2023-03-12T18:32:41.342Z,4.30
2023-03-12T18:37:33.691Z,4.67
2023-03-12T18:42:25.560Z,5.63
2023-03-12T18:47:19.004Z,4.77
2023-03-12T18:52:10.857Z,4.53
2023-03-12T18:57:02.542Z,3.70
2023-03-12T19:01:54.699Z,4.13
2023-03-12T19:06:51.238Z,5.00
2023-03-12T19:11:43.513Z,4.10
2023-03-12T19:16:35.200Z,4.87
2023-03-12T19:21:26.954Z,4.27
2023-03-12T19:26:18.529Z,4.10
2023-03-12T19:31:15.105Z,4.27
2023-03-12T19:36:07.652Z,4.20
2023-03-12T19:40:59.649Z,4.33
2023-03-12T19:45:52.968Z,4.23
2023-03-12T19:50:47.620Z,3.77
2023-03-12T19:55:39.709Z,4.57
2023-03-12T20:00:31.700Z,4.47
2023-03-12T20:05:23.368Z,4.87
2023-03-12T20:10:15.703Z,4.67
2023-03-12T20:15:08.496Z,3.97
2023-03-12T20:20:01.216Z,4.50
2023-03-12T20:24:53.958Z,4.27
2023-03-12T20:29:50.809Z,4.17
2023-03-12T20:34:42.484Z,3.67
2023-03-12T20:39:34.236Z,3.63
2023-03-12T20:44:26.001Z,4.57
2023-03-12T20:49:17.819Z,3.83
